»·PEaware :: SWA2572 KBUR-KSMF

SWA2572 :: KBUR-KSMF

FLIGHT INFORMATION

Flight Status: Arrived
Operator:
Southwest Airlines
More flights by this operator :: More flights under this callsign
Pilot: Cody S. (29806)
Aircraft: BOEING 737-700
(B737)
More flights by this aircraft type
Origin: KBUR Bob Hope-Burbank
United States
Destination: KSMF Sacramento Intl
United States
More flights between these airports :: More routes between these airports
Route: OROSZ2 CSTRO NURAY SUUTR3
File this flight plan on PilotEdge
Remarks:
Altitude:
(Current/Filed)
36,000ft
Speed:
(Current/Filed)
458kts
Departed: 17-Nov-20 08:53 PM
Arrived: 17-Nov-20 10:01 PM
Distance/Time
Traveled:
312nm/1:08
Distance/Time
To Go:
Arrived

Flight Plot

Page will automatically refresh every two minutes.

Flight plan parsing failed; only flown route is shown


Map Options




Map Legend


Flown Route
Filed Route
Departure Airport
Arrival Airport
Navaid (VOR, NDB)
Fix

Horizontal Profiles

Position Reports

Time Latitude Longitude Heading Altitude Ground
Speed
17-Nov-20 20:26 34.196803 -118.351530 179 705ft 0kts
17-Nov-20 20:27 34.196803 -118.351530 179 705ft 0kts
17-Nov-20 20:27 34.196803 -118.351530 179 705ft 0kts
17-Nov-20 20:29 34.196803 -118.351530 179 705ft 0kts
17-Nov-20 20:29 34.196803 -118.351530 179 705ft 0kts
17-Nov-20 20:31 34.196803 -118.351530 179 705ft 0kts
17-Nov-20 20:31 34.196803 -118.351530 179 705ft 0kts
17-Nov-20 20:32 34.196803 -118.351530 179 705ft 0kts
17-Nov-20 20:33 34.196803 -118.351530 179 705ft 0kts
17-Nov-20 20:35 34.196803 -118.351530 179 705ft 0kts
17-Nov-20 20:35 34.196803 -118.351530 179 705ft 0kts
17-Nov-20 20:36 34.196803 -118.351530 179 705ft 0kts
17-Nov-20 20:37 34.196803 -118.351530 179 705ft 0kts
17-Nov-20 20:38 34.196803 -118.351530 179 705ft 0kts
17-Nov-20 20:39 34.196803 -118.351530 179 705ft 0kts
17-Nov-20 20:40 34.196804 -118.351530 179 705ft 0kts
17-Nov-20 20:41 34.196804 -118.351530 179 705ft 0kts
17-Nov-20 20:42 34.196804 -118.351530 179 705ft 0kts
17-Nov-20 20:43 34.196852 -118.351529 199 705ft 1kts
17-Nov-20 20:44 34.197181 -118.351518 89 707ft 0kts
17-Nov-20 20:45 34.197175 -118.351600 90 707ft 0kts
17-Nov-20 20:46 34.197175 -118.351600 90 707ft 0kts
17-Nov-20 20:47 34.198136 -118.350275 340 707ft 0kts
17-Nov-20 20:48 34.199412 -118.355541 346 720ft 20kts
17-Nov-20 20:49 34.205983 -118.357323 348 754ft 26kts
17-Nov-20 20:50 34.211279 -118.358875 336 777ft 15kts
17-Nov-20 20:51 34.211538 -118.359055 321 778ft 0kts
17-Nov-20 20:52 34.199959 -118.357052 165 727ft 168kts
17-Nov-20 20:53 34.152033 -118.367790 231 3449ft 206kts
17-Nov-20 20:54 34.166092 -118.433353 329 5542ft 258kts
17-Nov-20 20:55 34.225562 -118.485693 315 7966ft 272kts
17-Nov-20 20:56 34.283723 -118.548690 315 7999ft 290kts
17-Nov-20 20:57 34.343428 -118.612836 316 7999ft 290kts
17-Nov-20 20:58 34.411082 -118.669290 339 8972ft 307kts
17-Nov-20 20:59 34.493517 -118.687180 349 9000ft 301kts
17-Nov-20 21:00 34.581046 -118.704318 346 11507ft 350kts
17-Nov-20 21:01 34.679434 -118.723508 344 14927ft 367kts
17-Nov-20 21:02 34.771460 -118.766845 323 18295ft 359kts
17-Nov-20 21:03 34.859923 -118.827697 323 21019ft 376kts
17-Nov-20 21:04 34.952589 -118.891435 322 23503ft 391kts
17-Nov-20 21:05 35.049138 -118.958025 323 25728ft 407kts
17-Nov-20 21:06 35.149090 -119.027153 323 27743ft 421kts
17-Nov-20 21:07 35.251340 -119.098061 323 29630ft 432kts
17-Nov-20 21:08 35.356219 -119.170970 322 31759ft 433kts
17-Nov-20 21:09 35.460733 -119.239867 330 34125ft 429kts
17-Nov-20 21:10 35.573606 -119.285569 333 35980ft 428kts
17-Nov-20 21:11 35.688331 -119.331666 333 36031ft 434kts
17-Nov-20 21:12 35.801191 -119.377156 332 36032ft 433kts
17-Nov-20 21:13 35.915727 -119.423436 332 36028ft 433kts
17-Nov-20 21:14 36.029898 -119.469748 332 36024ft 435kts
17-Nov-20 21:15 36.145205 -119.516597 332 36017ft 434kts
17-Nov-20 21:16 36.259554 -119.563235 332 36016ft 436kts
17-Nov-20 21:17 36.373609 -119.609924 331 36016ft 435kts
17-Nov-20 21:18 36.488415 -119.657016 331 36030ft 435kts
17-Nov-20 21:19 36.601923 -119.707808 322 36035ft 423kts
17-Nov-20 21:20 36.700803 -119.783613 317 36032ft 418kts
17-Nov-20 21:21 36.799165 -119.860790 317 36031ft 419kts
17-Nov-20 21:22 36.897631 -119.938347 318 36034ft 434kts
17-Nov-20 21:23 36.998840 -120.018118 317 35594ft 430kts
17-Nov-20 21:24 37.100446 -120.098572 317 33723ft 437kts
17-Nov-20 21:25 37.202599 -120.179656 316 30769ft 430kts
17-Nov-20 21:26 37.301308 -120.258370 316 28461ft 415kts
17-Nov-20 21:27 37.396359 -120.334685 315 25887ft 404kts
17-Nov-20 21:28 37.487588 -120.410972 309 23610ft 381kts
17-Nov-20 21:29 37.569633 -120.493837 310 21127ft 371kts
17-Nov-20 21:30 37.650237 -120.574785 310 21021ft 374kts
17-Nov-20 21:31 37.730634 -120.655342 310 19106ft 362kts
17-Nov-20 21:32 37.808904 -120.734507 310 18799ft 368kts
17-Nov-20 21:33 37.888009 -120.814475 311 17130ft 361kts
17-Nov-20 21:34 37.965779 -120.893398 312 14841ft 357kts
17-Nov-20 21:35 38.042728 -120.971698 313 12746ft 350kts
17-Nov-20 21:36 38.111219 -121.058106 301 12639ft 344kts
17-Nov-20 21:37 38.168653 -121.142888 301 11501ft 298kts
17-Nov-20 21:38 38.221803 -121.220540 306 10311ft 288kts
17-Nov-20 21:39 38.277949 -121.291327 309 9100ft 279kts
17-Nov-20 21:40 38.332085 -121.359987 309 7880ft 271kts
17-Nov-20 21:41 38.384945 -121.427047 310 7011ft 265kts
17-Nov-20 21:42 38.436818 -121.493002 310 6283ft 264kts
17-Nov-20 21:43 38.489627 -121.556628 317 5076ft 261kts
17-Nov-20 21:44 38.546790 -121.614196 318 4996ft 262kts
17-Nov-20 21:45 38.600271 -121.667744 322 4738ft 231kts
17-Nov-20 21:46 38.663415 -121.688178 351 4013ft 235kts
17-Nov-20 21:47 38.728653 -121.694441 359 4001ft 239kts
17-Nov-20 21:48 38.794106 -121.692546 359 4001ft 226kts
17-Nov-20 21:49 38.857041 -121.690340 0 3375ft 227kts
17-Nov-20 21:50 38.919634 -121.688106 1 2561ft 220kts
17-Nov-20 21:51 38.977099 -121.686020 2 2498ft 203kts
17-Nov-20 21:52 39.003973 -121.639781 108 2011ft 176kts
17-Nov-20 21:53 38.967617 -121.602849 153 1997ft 170kts
17-Nov-20 21:54 38.923041 -121.583814 165 1997ft 167kts
17-Nov-20 21:55 38.881072 -121.577667 178 2002ft 151kts
17-Nov-20 21:56 38.838880 -121.577786 180 2003ft 151kts
17-Nov-20 21:57 38.797779 -121.578566 180 1794ft 142kts
17-Nov-20 21:58 38.758245 -121.579227 179 1065ft 143kts
17-Nov-20 21:59 38.720819 -121.579845 179 342ft 134kts
17-Nov-20 22:00 38.693066 -121.580338 188 28ft 29kts
17-Nov-20 22:01 38.691058 -121.581543 209 28ft 0kts
17-Nov-20 22:02 38.690579 -121.582841 334 28ft 11kts
17-Nov-20 22:03 38.696906 -121.583522 265 29ft 16kts
17-Nov-20 22:04 38.696931 -121.591800 270 33ft 21kts
17-Nov-20 22:05 38.696413 -121.594074 181 33ft 5kts
17-Nov-20 22:06 38.696295 -121.594080 182 33ft 0kts

Navigation Log

Ident Type
Flight plan parsing failed, navigation log unavailable